createdAt,value
2018-03-26T00:02:24.448Z,26.00
2018-03-26T00:04:50.612Z,25.70
2018-03-26T00:07:16.752Z,23.90
2018-03-26T00:09:42.926Z,24.60
2018-03-26T00:12:09.053Z,26.57
2018-03-26T00:14:35.190Z,26.20
2018-03-26T00:17:01.336Z,27.23
2018-03-26T00:19:27.448Z,26.53
2018-03-26T00:21:53.544Z,30.23
2018-03-26T00:24:19.736Z,27.80
2018-03-26T00:26:45.869Z,29.07
2018-03-26T00:29:12.016Z,29.10
2018-03-26T00:31:38.878Z,32.97
2018-03-26T00:34:05.067Z,30.10
2018-03-26T00:36:31.200Z,31.30
2018-03-26T00:38:57.360Z,30.03
2018-03-26T00:41:23.504Z,28.60
2018-03-26T00:43:49.640Z,30.10
2018-03-26T00:46:15.761Z,33.37
2018-03-26T00:48:41.886Z,32.10
2018-03-26T00:51:08.027Z,31.80
2018-03-26T00:53:42.441Z,33.70
2018-03-26T00:56:08.586Z,38.23
2018-03-26T00:58:34.742Z,33.60
2018-03-26T01:01:01.645Z,32.33
2018-03-26T01:03:27.794Z,35.33
2018-03-26T01:05:54.679Z,33.83
2018-03-26T01:08:20.803Z,27.63
2018-03-26T01:10:46.901Z,28.40
2018-03-26T01:13:13.766Z,29.30
2018-03-26T01:15:39.955Z,28.13
2018-03-26T01:18:06.803Z,31.73
2018-03-26T01:20:33.681Z,31.87
2018-03-26T01:22:59.821Z,28.07
2018-03-26T01:25:25.963Z,31.53
2018-03-26T01:27:52.139Z,28.70
2018-03-26T01:30:19.078Z,27.43
2018-03-26T01:32:46.004Z,32.13
2018-03-26T01:35:12.152Z,25.80
2018-03-26T01:37:39.032Z,29.87
2018-03-26T01:40:05.183Z,31.17
2018-03-26T01:42:31.391Z,30.40
2018-03-26T01:44:57.536Z,29.80
2018-03-26T01:47:23.732Z,25.97
2018-03-26T01:49:49.916Z,27.50
2018-03-26T01:52:16.092Z,31.23
2018-03-26T01:54:42.234Z,27.43
2018-03-26T01:57:08.355Z,31.00
2018-03-26T01:59:34.487Z,27.23
2018-03-26T02:02:00.625Z,33.37
2018-03-26T02:04:26.740Z,32.07
2018-03-26T02:06:52.888Z,30.77
2018-03-26T02:09:19.076Z,27.80
2018-03-26T02:11:45.208Z,28.97
2018-03-26T02:14:11.368Z,28.10
2018-03-26T02:16:37.502Z,33.10
2018-03-26T02:19:03.711Z,28.17
2018-03-26T02:21:29.845Z,33.00
2018-03-26T02:23:56.029Z,31.93
2018-03-26T02:26:22.157Z,29.70
2018-03-26T02:28:48.340Z,38.37
2018-03-26T02:31:14.485Z,32.50
2018-03-26T02:33:41.418Z,34.43
2018-03-26T02:36:08.292Z,35.40
2018-03-26T02:38:34.407Z,31.83
2018-03-26T02:41:01.313Z,39.63
2018-03-26T02:43:28.182Z,29.07
2018-03-26T02:45:55.080Z,28.60
2018-03-26T02:48:21.204Z,26.90
2018-03-26T02:50:47.454Z,30.07
2018-03-26T02:53:13.594Z,32.33
2018-03-26T02:55:39.753Z,28.10
2018-03-26T02:58:05.876Z,29.47
2018-03-26T03:00:32.762Z,33.17
2018-03-26T03:02:58.858Z,32.33
2018-03-26T03:05:25.017Z,28.83
2018-03-26T03:07:51.209Z,27.13
2018-03-26T03:10:17.362Z,30.50
2018-03-26T03:12:43.519Z,31.40
2018-03-26T03:15:10.386Z,29.00
2018-03-26T03:17:37.271Z,30.83
2018-03-26T03:20:03.413Z,34.43
2018-03-26T03:22:29.621Z,33.23
2018-03-26T03:24:55.768Z,38.67
2018-03-26T03:27:21.936Z,37.73
2018-03-26T03:29:48.802Z,43.43
2018-03-26T03:32:14.925Z,38.03
2018-03-26T03:34:41.041Z,35.70
2018-03-26T03:37:07.202Z,38.30
2018-03-26T03:39:33.338Z,34.20
2018-03-26T03:41:59.505Z,35.80
2018-03-26T03:44:26.377Z,33.40
2018-03-26T03:46:52.493Z,34.97
2018-03-26T03:49:18.627Z,36.97
2018-03-26T03:51:44.717Z,39.97
2018-03-26T03:54:10.885Z,35.07
2018-03-26T03:56:37.064Z,38.50
2018-03-26T03:59:03.245Z,36.77
2018-03-26T04:01:29.390Z,32.83
2018-03-26T04:03:55.505Z,33.70
2018-03-26T04:06:21.647Z,36.00
2018-03-26T04:08:47.813Z,32.93
2018-03-26T04:11:14.691Z,30.63
2018-03-26T04:13:40.846Z,27.63
2018-03-26T04:16:07.021Z,34.53
2018-03-26T04:18:33.885Z,33.03
2018-03-26T04:21:00.008Z,29.33
2018-03-26T04:23:26.173Z,27.47
2018-03-26T04:25:52.307Z,29.90
2018-03-26T04:28:18.451Z,37.37
2018-03-26T04:30:45.430Z,34.03
2018-03-26T04:33:11.601Z,32.23
2018-03-26T04:35:37.743Z,29.80
2018-03-26T04:38:03.910Z,30.10
2018-03-26T04:40:30.073Z,36.17
2018-03-26T04:42:56.213Z,29.57
2018-03-26T04:45:23.079Z,38.83
2018-03-26T04:47:49.975Z,30.83
2018-03-26T04:50:16.140Z,33.43
2018-03-26T04:52:43.056Z,32.13
2018-03-26T04:55:09.173Z,35.07
2018-03-26T04:57:35.365Z,34.97
2018-03-26T05:00:01.545Z,37.17
2018-03-26T05:02:27.720Z,42.10
2018-03-26T05:04:53.872Z,37.80
2018-03-26T05:07:20.055Z,32.83
2018-03-26T05:09:46.983Z,36.10
2018-03-26T05:12:13.826Z,34.63
2018-03-26T05:14:39.998Z,34.27
2018-03-26T05:17:06.121Z,33.47
2018-03-26T05:19:32.254Z,34.13
2018-03-26T05:21:58.350Z,28.90
2018-03-26T05:24:25.218Z,27.97
2018-03-26T05:26:51.379Z,34.93
2018-03-26T05:29:17.538Z,33.67
2018-03-26T05:31:44.453Z,34.63
2018-03-26T05:34:10.613Z,37.47
2018-03-26T05:36:37.576Z,33.47
2018-03-26T05:39:03.818Z,35.57
2018-03-26T05:41:30.010Z,34.07
2018-03-26T05:43:56.898Z,32.83
2018-03-26T05:46:23.066Z,33.87
2018-03-26T05:48:50.031Z,34.03
2018-03-26T05:51:16.969Z,35.43
2018-03-26T05:53:43.843Z,33.20
2018-03-26T05:56:09.982Z,33.27
2018-03-26T05:58:36.107Z,37.43
2018-03-26T06:01:02.291Z,35.80
2018-03-26T06:03:29.184Z,35.27
2018-03-26T06:05:55.342Z,32.10
2018-03-26T06:08:21.455Z,42.20
2018-03-26T06:10:47.611Z,30.60
2018-03-26T06:13:14.548Z,34.67
2018-03-26T06:15:40.739Z,40.20
2018-03-26T06:18:06.924Z,41.00
2018-03-26T06:20:33.917Z,33.20
2018-03-26T06:23:00.085Z,37.30
2018-03-26T06:25:27.053Z,34.53
2018-03-26T06:27:53.190Z,31.63
2018-03-26T06:30:19.441Z,34.97
2018-03-26T06:32:45.646Z,35.30
2018-03-26T06:35:11.810Z,33.90
2018-03-26T06:37:44.253Z,34.60
2018-03-26T06:40:10.460Z,36.97
2018-03-26T06:42:38.180Z,29.87
2018-03-26T06:45:05.126Z,32.40
2018-03-26T06:47:31.350Z,35.67
2018-03-26T06:49:57.487Z,35.60
2018-03-26T06:52:24.390Z,35.20
2018-03-26T06:54:50.545Z,29.50
2018-03-26T06:57:16.665Z,41.63
2018-03-26T06:59:42.804Z,34.67
2018-03-26T07:02:09.007Z,33.17
2018-03-26T07:04:35.155Z,47.43
2018-03-26T07:07:01.356Z,36.40
2018-03-26T07:09:27.530Z,34.60
2018-03-26T07:11:54.421Z,46.20
2018-03-26T07:14:20.573Z,36.27
2018-03-26T07:16:46.701Z,37.00
2018-03-26T07:19:12.886Z,40.60
2018-03-26T07:21:39.097Z,33.83
2018-03-26T07:24:05.182Z,31.73
2018-03-26T07:26:31.415Z,38.00
2018-03-26T07:28:57.586Z,37.47
2018-03-26T07:31:24.474Z,33.57
2018-03-26T07:33:50.621Z,36.13
2018-03-26T07:36:17.543Z,32.03
2018-03-26T07:38:43.658Z,34.43
2018-03-26T07:41:09.785Z,40.47
2018-03-26T07:43:35.967Z,35.27
2018-03-26T07:46:02.904Z,33.93
2018-03-26T07:48:29.103Z,36.70
2018-03-26T07:50:55.234Z,36.03
2018-03-26T07:53:21.393Z,38.33
2018-03-26T07:55:48.266Z,44.10
2018-03-26T07:58:14.466Z,36.87
2018-03-26T08:00:41.337Z,37.17
2018-03-26T08:03:07.493Z,35.20
2018-03-26T08:05:33.642Z,38.23
2018-03-26T08:08:00.547Z,42.63
2018-03-26T08:10:26.684Z,39.20
2018-03-26T08:12:52.855Z,43.03
2018-03-26T08:15:19.743Z,34.87
2018-03-26T08:17:45.889Z,39.53
2018-03-26T08:20:12.041Z,41.47
2018-03-26T08:22:38.211Z,47.47
2018-03-26T08:25:04.436Z,37.87
2018-03-26T08:27:30.572Z,37.63
2018-03-26T08:29:56.698Z,37.13
2018-03-26T08:32:22.904Z,39.03
2018-03-26T08:34:49.803Z,39.70
2018-03-26T08:37:15.918Z,44.60
2018-03-26T08:39:42.025Z,42.53
2018-03-26T08:42:08.168Z,41.57
2018-03-26T08:44:34.370Z,48.27
2018-03-26T08:47:00.525Z,47.40
2018-03-26T08:49:26.687Z,43.80
2018-03-26T08:51:53.550Z,41.30
2018-03-26T08:54:20.405Z,39.47
2018-03-26T08:56:46.560Z,48.27
2018-03-26T08:59:12.672Z,47.20
2018-03-26T09:01:38.815Z,47.40
2018-03-26T09:04:05.028Z,43.53
2018-03-26T09:06:31.222Z,50.50
2018-03-26T09:08:57.413Z,45.70
2018-03-26T09:11:24.273Z,55.53
2018-03-26T09:13:50.425Z,56.43
2018-03-26T09:16:16.570Z,44.70
2018-03-26T09:18:42.740Z,43.80
2018-03-26T09:21:08.893Z,38.33
2018-03-26T09:23:35.807Z,42.83
2018-03-26T09:26:01.972Z,57.57
2018-03-26T09:28:28.098Z,39.77
2018-03-26T09:30:54.993Z,46.30
2018-03-26T09:33:21.171Z,36.33
2018-03-26T09:35:48.049Z,48.03
2018-03-26T09:38:14.195Z,51.17
2018-03-26T09:40:40.361Z,43.93
2018-03-26T09:43:07.257Z,42.00
2018-03-26T09:45:33.445Z,48.60
2018-03-26T09:48:00.351Z,44.40
2018-03-26T09:50:26.536Z,43.33
2018-03-26T09:52:52.642Z,44.80
2018-03-26T09:55:19.624Z,43.30
2018-03-26T09:57:45.792Z,48.20
2018-03-26T10:00:12.733Z,52.10
2018-03-26T10:02:38.871Z,47.20
2018-03-26T10:05:05.831Z,50.90
2018-03-26T10:07:32.037Z,50.57
2018-03-26T10:09:58.980Z,46.00
2018-03-26T10:12:25.868Z,62.80
2018-03-26T10:14:52.033Z,48.40
2018-03-26T10:17:18.960Z,50.13
2018-03-26T10:19:45.170Z,46.13
2018-03-26T10:22:12.032Z,54.30
2018-03-26T10:24:38.185Z,53.13
2018-03-26T10:27:04.400Z,51.27
2018-03-26T10:29:30.546Z,55.83
2018-03-26T10:31:56.726Z,52.03
2018-03-26T10:34:22.895Z,50.87
2018-03-26T10:36:49.038Z,59.10
2018-03-26T10:39:15.948Z,62.53
2018-03-26T10:41:42.840Z,63.70
2018-03-26T10:44:09.074Z,54.70
2018-03-26T10:46:35.292Z,56.83
2018-03-26T10:49:01.513Z,60.63
2018-03-26T10:51:27.685Z,66.37
2018-03-26T10:53:53.862Z,69.73
2018-03-26T10:56:20.738Z,60.13
2018-03-26T10:58:46.870Z,65.13
2018-03-26T11:01:13.031Z,62.73
2018-03-26T11:03:39.197Z,69.87
2018-03-26T11:06:05.424Z,64.97
2018-03-26T11:08:32.278Z,75.40
2018-03-26T11:10:58.451Z,65.73
2018-03-26T11:13:24.645Z,68.67
2018-03-26T11:15:50.820Z,64.77
2018-03-26T11:18:16.953Z,61.50
2018-03-26T11:20:43.119Z,72.27
2018-03-26T11:23:09.280Z,64.53
2018-03-26T11:25:35.475Z,64.13
2018-03-26T11:28:01.660Z,61.77
2018-03-26T11:30:27.805Z,60.40
2018-03-26T11:32:54.004Z,63.53
2018-03-26T11:35:20.198Z,56.50
2018-03-26T11:37:46.356Z,62.13
2018-03-26T11:40:13.239Z,56.20
2018-03-26T11:42:39.366Z,56.80
2018-03-26T11:45:06.265Z,62.07
2018-03-26T11:47:32.414Z,59.57
2018-03-26T11:49:58.569Z,65.93
2018-03-26T11:52:24.724Z,53.07
2018-03-26T11:54:50.914Z,60.40
2018-03-26T11:57:17.046Z,55.67
2018-03-26T11:59:43.192Z,65.40
2018-03-26T12:02:09.336Z,53.70
2018-03-26T12:04:35.512Z,56.30
2018-03-26T12:07:02.385Z,56.27
2018-03-26T12:09:28.538Z,56.53
2018-03-26T12:11:54.696Z,48.63
2018-03-26T12:14:20.885Z,55.70
2018-03-26T12:16:47.047Z,46.53
2018-03-26T12:19:13.181Z,47.20
2018-03-26T12:21:40.045Z,47.17
2018-03-26T12:24:18.624Z,51.00
2018-03-26T12:26:44.798Z,46.60
2018-03-26T12:29:23.248Z,37.47
2018-03-26T12:31:49.437Z,32.60
2018-03-26T12:34:27.893Z,31.50
2018-03-26T12:36:54.120Z,29.63
2018-03-26T12:39:20.320Z,30.80
2018-03-26T12:41:46.488Z,34.13
2018-03-26T12:44:24.992Z,44.10
2018-03-26T12:46:51.201Z,41.27
2018-03-26T12:49:17.368Z,40.43
2018-03-26T12:51:55.884Z,38.77
2018-03-26T12:54:21.986Z,34.13
2018-03-26T12:59:46.178Z,33.73
2018-03-26T13:02:29.758Z,31.83
2018-03-26T13:04:56.653Z,30.53
2018-03-26T13:07:22.786Z,30.20
2018-03-26T13:09:48.992Z,31.23
2018-03-26T13:12:15.195Z,32.97
2018-03-26T13:14:42.105Z,34.37
2018-03-26T13:17:08.335Z,36.07
2018-03-26T13:19:34.516Z,36.53
2018-03-26T13:22:00.673Z,31.37
2018-03-26T13:24:26.836Z,36.40
2018-03-26T13:26:53.732Z,34.80
2018-03-26T13:29:19.973Z,34.33
2018-03-26T13:31:46.148Z,34.00
2018-03-26T13:34:13.059Z,34.90
2018-03-26T13:36:39.175Z,32.37
2018-03-26T13:39:05.325Z,39.63
2018-03-26T13:41:31.476Z,38.27
2018-03-26T13:43:58.490Z,39.90
2018-03-26T13:46:24.646Z,35.73
2018-03-26T13:48:54.562Z,42.53
2018-03-26T13:51:21.461Z,46.00
2018-03-26T13:53:47.661Z,31.30
2018-03-26T13:56:13.887Z,33.67
2018-03-26T13:58:40.097Z,32.57
2018-03-26T14:01:07.088Z,43.60
2018-03-26T14:03:33.245Z,38.47
2018-03-26T14:06:00.158Z,37.60
2018-03-26T14:08:38.541Z,38.83
2018-03-26T14:11:16.857Z,39.77
2018-03-26T14:13:55.153Z,44.67
2018-03-26T14:16:33.571Z,39.90
2018-03-26T14:18:59.723Z,40.87
2018-03-26T14:21:25.915Z,38.73
2018-03-26T14:23:52.092Z,38.27
2018-03-26T14:26:18.258Z,44.63
2018-03-26T14:28:45.185Z,40.43
2018-03-26T14:31:12.114Z,38.93
2018-03-26T14:33:38.296Z,37.40
2018-03-26T14:36:04.448Z,38.47
2018-03-26T14:38:30.638Z,40.07
2018-03-26T14:40:56.794Z,38.77
2018-03-26T14:43:23.075Z,44.20
2018-03-26T14:45:50.053Z,35.40
2018-03-26T14:48:16.273Z,43.83
2018-03-26T14:50:42.396Z,36.80
2018-03-26T14:53:08.568Z,39.23
2018-03-26T14:55:34.733Z,41.13
2018-03-26T14:58:01.667Z,37.73
2018-03-26T15:00:28.653Z,42.57
2018-03-26T15:02:54.848Z,41.80
2018-03-26T15:05:21.752Z,42.30
2018-03-26T15:07:47.920Z,40.00
2018-03-26T15:10:14.812Z,43.57
2018-03-26T15:12:40.959Z,43.60
2018-03-26T15:15:07.126Z,45.20
2018-03-26T15:17:34.015Z,42.20
2018-03-26T15:20:00.158Z,42.30
2018-03-26T15:22:26.331Z,41.73
2018-03-26T15:24:52.539Z,44.33
2018-03-26T15:27:19.572Z,41.00
2018-03-26T15:29:45.637Z,42.50
2018-03-26T15:32:11.839Z,43.17
2018-03-26T15:34:38.761Z,41.53
2018-03-26T15:37:04.926Z,39.70
2018-03-26T15:39:31.900Z,46.30
2018-03-26T15:41:58.073Z,46.50
2018-03-26T15:44:24.269Z,44.70
2018-03-26T15:46:50.436Z,45.37
2018-03-26T15:49:17.386Z,48.93
2018-03-26T15:51:44.304Z,46.17
2018-03-26T15:54:11.265Z,46.50
2018-03-26T15:56:37.478Z,46.20
2018-03-26T15:59:04.365Z,44.67
2018-03-26T16:01:30.576Z,40.93
2018-03-26T16:03:57.454Z,42.70
2018-03-26T16:06:23.606Z,41.63
2018-03-26T16:08:49.794Z,44.40
2018-03-26T16:11:15.970Z,44.30
2018-03-26T16:13:42.173Z,43.30
2018-03-26T16:16:08.589Z,39.10
2018-03-26T16:18:34.784Z,37.80
2018-03-26T16:21:01.029Z,42.37
2018-03-26T16:23:27.235Z,41.90
2018-03-26T16:25:54.144Z,43.67
2018-03-26T16:28:20.315Z,43.37
2018-03-26T16:30:47.235Z,39.97
2018-03-26T16:33:13.372Z,43.00
2018-03-26T16:35:39.572Z,41.87
2018-03-26T16:38:05.808Z,43.77
2018-03-26T16:40:31.997Z,41.03
2018-03-26T16:43:04.168Z,43.23
2018-03-26T16:45:30.300Z,52.70
2018-03-26T16:47:56.523Z,55.50
2018-03-26T16:50:22.732Z,47.67
2018-03-26T16:52:48.954Z,42.00
2018-03-26T16:55:15.879Z,46.53
2018-03-26T16:57:42.042Z,51.27
2018-03-26T17:00:08.229Z,64.80
2018-03-26T17:02:34.472Z,69.80
2018-03-26T17:05:01.402Z,71.57
2018-03-26T17:07:27.568Z,75.07
2018-03-26T17:09:53.793Z,65.87
2018-03-26T17:12:19.955Z,73.67
2018-03-26T17:14:46.171Z,63.57
2018-03-26T17:17:12.384Z,53.80
2018-03-26T17:19:38.547Z,61.97
2018-03-26T17:22:04.793Z,66.40
2018-03-26T17:24:30.978Z,67.37
2018-03-26T17:26:57.160Z,67.60
2018-03-26T17:29:23.327Z,63.20
2018-03-26T17:31:49.466Z,56.33
2018-03-26T17:34:15.668Z,50.60
2018-03-26T17:36:41.881Z,52.90
2018-03-26T17:39:08.722Z,46.40
2018-03-26T17:41:35.578Z,49.83
2018-03-26T17:44:01.725Z,52.50
2018-03-26T17:46:27.884Z,48.20
2018-03-26T17:48:54.122Z,44.80
2018-03-26T17:51:20.275Z,54.03
2018-03-26T17:53:47.164Z,48.90
2018-03-26T17:56:13.290Z,44.27
2018-03-26T17:58:39.471Z,46.30
2018-03-26T18:01:06.438Z,42.30
2018-03-26T18:03:32.645Z,42.97
2018-03-26T18:05:59.598Z,40.97
2018-03-26T18:08:25.834Z,42.03
2018-03-26T18:10:52.000Z,47.93
2018-03-26T18:13:18.134Z,46.50
2018-03-26T18:15:44.306Z,41.57
2018-03-26T18:18:11.240Z,47.87
2018-03-26T18:20:38.110Z,45.70
2018-03-26T18:23:04.262Z,46.60
2018-03-26T18:25:30.469Z,44.50
2018-03-26T18:27:56.623Z,47.20
2018-03-26T18:30:22.778Z,48.90
2018-03-26T18:32:48.895Z,42.63
2018-03-26T18:35:15.812Z,52.97
2018-03-26T18:37:41.945Z,50.50
2018-03-26T18:40:08.093Z,48.07
2018-03-26T18:42:35.027Z,51.40
2018-03-26T18:45:01.957Z,47.63
2018-03-26T18:47:28.168Z,49.23
2018-03-26T18:49:54.381Z,58.43
2018-03-26T18:52:20.605Z,49.43
2018-03-26T18:54:46.855Z,48.43
2018-03-26T18:57:13.033Z,46.57
2018-03-26T18:59:39.975Z,54.07
2018-03-26T19:02:06.200Z,52.77
2018-03-26T19:04:33.070Z,55.90
2018-03-26T19:06:59.257Z,49.20
2018-03-26T19:09:25.387Z,49.23
2018-03-26T19:11:51.590Z,45.70
2018-03-26T19:14:17.820Z,50.23
2018-03-26T19:16:44.080Z,58.20
2018-03-26T19:19:10.273Z,53.87
2018-03-26T19:21:36.413Z,52.53
2018-03-26T19:24:02.631Z,50.77
2018-03-26T19:26:28.802Z,52.60
2018-03-26T19:28:55.751Z,55.40
2018-03-26T19:31:22.658Z,47.83
2018-03-26T19:33:48.898Z,50.47
2018-03-26T19:36:15.113Z,49.67
2018-03-26T19:38:41.301Z,40.07
2018-03-26T19:41:07.534Z,44.90
2018-03-26T19:43:33.770Z,52.50
2018-03-26T19:45:59.928Z,44.73
2018-03-26T19:48:26.127Z,54.40
2018-03-26T19:50:52.271Z,43.77
2018-03-26T19:53:18.464Z,47.67
2018-03-26T19:55:44.588Z,53.13
2018-03-26T19:58:10.734Z,54.23
2018-03-26T20:00:36.876Z,49.87
2018-03-26T20:03:03.076Z,49.70
2018-03-26T20:05:29.249Z,51.10
2018-03-26T20:07:55.393Z,51.83
2018-03-26T20:10:21.597Z,47.40
2018-03-26T20:12:47.787Z,54.60
2018-03-26T20:15:13.965Z,49.73
2018-03-26T20:17:40.931Z,52.33
2018-03-26T20:20:07.912Z,47.17
2018-03-26T20:22:34.085Z,51.47
2018-03-26T20:25:00.940Z,47.30
2018-03-26T20:27:27.102Z,54.70
2018-03-26T20:29:53.289Z,54.77
2018-03-26T20:32:20.212Z,52.40
2018-03-26T20:34:46.389Z,63.80
2018-03-26T20:37:12.613Z,53.93
2018-03-26T20:39:39.525Z,57.03
2018-03-26T20:42:05.668Z,50.53
2018-03-26T20:44:31.885Z,52.67
2018-03-26T20:46:58.766Z,52.83
2018-03-26T20:49:24.891Z,50.07
2018-03-26T20:51:51.030Z,45.40
2018-03-26T20:54:17.177Z,50.17
2018-03-26T20:56:43.388Z,53.33
2018-03-26T20:59:09.568Z,57.17
2018-03-26T21:01:36.479Z,51.47
2018-03-26T21:04:02.690Z,55.70
2018-03-26T21:06:28.856Z,53.60
2018-03-26T21:08:55.034Z,49.50
2018-03-26T21:11:21.258Z,47.17
2018-03-26T21:13:47.517Z,54.17
2018-03-26T21:16:13.745Z,52.37
2018-03-26T21:18:39.932Z,52.27
2018-03-26T21:21:06.132Z,55.57
2018-03-26T21:23:32.291Z,49.63
2018-03-26T21:25:58.481Z,58.63
2018-03-26T21:28:25.390Z,52.57
2018-03-26T21:30:51.565Z,51.67
2018-03-26T21:33:17.721Z,50.63
2018-03-26T21:35:43.892Z,57.60
2018-03-26T21:38:10.093Z,61.03
2018-03-26T21:40:36.972Z,56.70
2018-03-26T21:43:03.137Z,56.60
2018-03-26T21:45:29.351Z,57.53
2018-03-26T21:47:56.220Z,57.07
2018-03-26T21:50:22.424Z,53.07
2018-03-26T21:52:49.336Z,53.00
2018-03-26T21:55:15.484Z,54.00
2018-03-26T21:57:42.447Z,55.90
2018-03-26T22:00:15.646Z,63.30
2018-03-26T22:02:41.875Z,49.67
2018-03-26T22:05:08.040Z,57.23
2018-03-26T22:07:34.241Z,61.70
2018-03-26T22:10:00.400Z,62.07
2018-03-26T22:12:26.559Z,55.03
2018-03-26T22:14:53.474Z,57.50
2018-03-26T22:17:19.643Z,54.13
2018-03-26T22:19:46.518Z,55.07
2018-03-26T22:22:12.716Z,45.57
2018-03-26T22:24:39.619Z,45.80
2018-03-26T22:27:05.766Z,38.93
2018-03-26T22:29:31.989Z,39.60
2018-03-26T22:31:58.216Z,46.33
2018-03-26T22:34:24.448Z,47.67
2018-03-26T22:36:50.733Z,45.10
2018-03-26T22:39:17.010Z,39.63
2018-03-26T22:41:43.279Z,50.50
2018-03-26T22:44:09.547Z,44.10
2018-03-26T22:46:35.810Z,45.90
2018-03-26T22:49:02.840Z,44.23
2018-03-26T22:51:29.854Z,52.40
2018-03-26T22:53:56.115Z,48.50
2018-03-26T22:56:22.383Z,46.47
2018-03-26T22:58:48.635Z,46.53
2018-03-26T23:01:14.923Z,50.10
2018-03-26T23:03:41.930Z,55.83
2018-03-26T23:06:08.190Z,51.63
2018-03-26T23:08:35.187Z,41.33
2018-03-26T23:11:01.479Z,51.47
2018-03-26T23:13:27.755Z,47.90
2018-03-26T23:15:54.026Z,49.43
2018-03-26T23:18:21.048Z,51.73
2018-03-26T23:20:48.060Z,59.23
2018-03-26T23:23:14.318Z,50.37
2018-03-26T23:25:40.615Z,48.90
2018-03-26T23:28:06.899Z,56.80
2018-03-26T23:30:33.903Z,46.17
2018-03-26T23:33:00.195Z,48.43
2018-03-26T23:35:26.464Z,52.43
2018-03-26T23:37:52.749Z,51.40
2018-03-26T23:40:19.753Z,48.50
2018-03-26T23:42:46.044Z,53.23
2018-03-26T23:45:12.320Z,50.87
2018-03-26T23:47:38.639Z,46.60
2018-03-26T23:50:04.907Z,49.87
2018-03-26T23:52:31.922Z,48.30
2018-03-26T23:54:58.179Z,50.13
2018-03-26T23:57:25.200Z,53.67
2018-03-26T23:59:51.497Z,50.97
